createdAt,value
2023-05-04T00:00:52.966Z,202.80
2023-05-04T00:03:25.131Z,201.00
2023-05-04T00:05:57.590Z,176.80
2023-05-04T00:08:29.462Z,187.70
2023-05-04T00:11:01.475Z,201.80
2023-05-04T00:13:33.448Z,200.90
2023-05-04T00:16:05.662Z,205.20
2023-05-04T00:18:37.636Z,206.40
2023-05-04T00:21:09.469Z,196.80
2023-05-04T00:23:41.365Z,196.00
2023-05-04T00:26:13.336Z,190.50
2023-05-04T00:28:45.451Z,202.80
2023-05-04T00:31:19.207Z,207.80
2023-05-04T00:33:51.303Z,205.90
2023-05-04T00:36:23.067Z,204.20
2023-05-04T00:38:56.471Z,210.20
2023-05-04T00:41:28.324Z,204.10
2023-05-04T00:44:03.080Z,202.00
2023-05-04T00:46:35.198Z,192.20
2023-05-04T00:49:07.383Z,190.50
2023-05-04T00:51:40.960Z,192.50
2023-05-04T00:54:12.847Z,179.00
2023-05-04T00:56:44.940Z,171.90
2023-05-04T00:59:16.731Z,177.30
2023-05-04T01:01:48.611Z,168.00
2023-05-04T01:04:20.717Z,195.50
2023-05-04T01:06:58.348Z,179.10
2023-05-04T01:09:33.022Z,186.50
2023-05-04T01:14:37.324Z,172.90
2023-05-04T01:17:09.845Z,173.00
2023-05-04T01:19:41.933Z,174.30
2023-05-04T01:22:13.673Z,198.40
2023-05-04T01:24:45.455Z,194.50
2023-05-04T01:27:20.826Z,195.60
2023-05-04T01:29:58.628Z,190.70
2023-05-04T01:32:31.139Z,204.20
2023-05-04T01:35:03.459Z,207.10
2023-05-04T01:37:35.658Z,185.20
2023-05-04T01:40:10.408Z,181.20
2023-05-04T01:45:14.269Z,191.00
2023-05-04T01:47:46.854Z,214.60
2023-05-04T01:50:18.709Z,207.40
2023-05-04T01:52:51.045Z,200.40
2023-05-04T01:55:22.884Z,194.00
2023-05-04T01:57:54.745Z,185.70
2023-05-04T02:00:26.813Z,185.50
2023-05-04T02:02:58.652Z,184.10
2023-05-04T02:05:30.811Z,195.10
2023-05-04T02:08:02.556Z,190.20
2023-05-04T02:10:34.956Z,190.40
2023-05-04T02:13:06.747Z,205.10
2023-05-04T02:15:39.124Z,192.70
2023-05-04T02:18:11.137Z,190.20
2023-05-04T02:20:42.998Z,188.20
2023-05-04T02:23:14.809Z,184.50
2023-05-04T02:25:46.663Z,176.60
2023-05-04T02:28:18.742Z,174.80
2023-05-04T02:30:50.512Z,179.50
2023-05-04T02:33:22.276Z,197.90
2023-05-04T02:35:54.115Z,185.20
2023-05-04T02:38:26.076Z,191.50
2023-05-04T02:40:58.453Z,186.70
2023-05-04T02:43:30.356Z,184.20
2023-05-04T02:46:02.295Z,174.50
2023-05-04T02:48:34.409Z,161.30
2023-05-04T02:51:06.820Z,159.30
2023-05-04T02:53:39.055Z,164.20
2023-05-04T02:56:11.521Z,168.60
2023-05-04T02:58:43.350Z,171.10
2023-05-04T03:01:15.218Z,184.60
2023-05-04T03:03:47.167Z,176.40
2023-05-04T03:06:19.000Z,188.30
2023-05-04T03:08:50.683Z,160.60
2023-05-04T03:11:22.463Z,168.00
2023-05-04T03:13:54.209Z,165.80
2023-05-04T03:16:26.043Z,174.40
2023-05-04T03:18:58.298Z,174.90
2023-05-04T03:21:30.293Z,165.60
2023-05-04T03:24:02.277Z,182.30
2023-05-04T03:26:33.973Z,178.00
2023-05-04T03:29:05.748Z,182.30
2023-05-04T03:31:37.608Z,159.20
2023-05-04T03:34:12.478Z,166.00
2023-05-04T03:39:14.563Z,167.20
2023-05-04T03:41:46.466Z,173.60
2023-05-04T03:44:18.247Z,183.40
2023-05-04T03:46:50.101Z,152.30
2023-05-04T03:49:22.297Z,154.30
2023-05-04T03:51:54.294Z,161.60
2023-05-04T03:54:28.569Z,151.10
2023-05-04T03:57:01.863Z,164.20
2023-05-04T03:59:33.812Z,161.80
2023-05-04T04:02:07.229Z,160.00
2023-05-04T04:04:39.084Z,152.80
2023-05-04T04:07:10.917Z,160.90
2023-05-04T04:09:42.749Z,168.10
2023-05-04T04:12:16.144Z,158.70
2023-05-04T04:14:48.448Z,157.70
2023-05-04T04:17:20.429Z,156.70
2023-05-04T04:19:52.218Z,153.00
2023-05-04T04:22:24.121Z,151.20
2023-05-04T04:24:56.359Z,163.60
2023-05-04T04:27:28.384Z,152.70
2023-05-04T04:30:00.221Z,159.20
2023-05-04T04:32:32.221Z,161.40
2023-05-04T04:35:04.405Z,155.70
2023-05-04T04:37:36.250Z,138.00
2023-05-04T04:40:10.413Z,146.40
2023-05-04T04:42:43.168Z,155.00
2023-05-04T04:45:16.055Z,143.80
2023-05-04T04:47:48.071Z,181.80
2023-05-04T04:50:20.147Z,156.30
2023-05-04T04:52:52.366Z,157.90
2023-05-04T04:55:26.123Z,153.40
2023-05-04T04:57:58.090Z,150.70
2023-05-04T05:00:30.058Z,149.40
2023-05-04T05:03:02.769Z,151.30
2023-05-04T05:05:34.726Z,139.80
2023-05-04T05:08:06.785Z,148.00
2023-05-04T05:10:38.711Z,126.30
2023-05-04T05:13:10.678Z,115.20
2023-05-04T05:15:42.787Z,130.30
2023-05-04T05:18:14.727Z,123.60
2023-05-04T05:20:46.515Z,120.90
2023-05-04T05:23:18.581Z,112.20
2023-05-04T05:25:50.389Z,104.90
2023-05-04T05:28:22.220Z,114.20
2023-05-04T05:30:54.123Z,115.00
2023-05-04T05:33:25.987Z,110.30
2023-05-04T05:35:57.828Z,108.80
2023-05-04T05:38:29.768Z,106.10
2023-05-04T05:41:01.505Z,105.60
2023-05-04T05:43:34.230Z,101.10
2023-05-04T05:46:06.564Z,91.30
2023-05-04T05:48:38.392Z,94.00
2023-05-04T05:51:10.137Z,91.30
2023-05-04T05:53:42.815Z,93.30
2023-05-04T05:56:15.032Z,72.60
2023-05-04T05:58:47.033Z,76.60
2023-05-04T06:01:18.821Z,89.10
2023-05-04T06:03:50.700Z,69.00
2023-05-04T06:06:22.772Z,80.00
2023-05-04T06:08:54.589Z,69.50
2023-05-04T06:11:26.878Z,57.20
2023-05-04T06:13:58.682Z,49.30
2023-05-04T06:16:30.791Z,50.40
2023-05-04T06:19:02.920Z,49.00
2023-05-04T06:21:34.852Z,49.20
2023-05-04T06:24:07.331Z,35.10
2023-05-04T06:26:39.256Z,33.50
2023-05-04T06:29:11.074Z,37.40
2023-05-04T06:31:47.979Z,41.50
2023-05-04T06:34:20.191Z,41.90
2023-05-04T06:36:52.006Z,47.40
2023-05-04T06:39:23.913Z,35.30
2023-05-04T06:41:58.407Z,33.50
2023-05-04T06:44:31.480Z,23.30
2023-05-04T06:47:03.299Z,20.80
2023-05-04T06:49:35.532Z,38.20
2023-05-04T06:52:07.829Z,20.80
2023-05-04T06:54:40.280Z,26.80
2023-05-04T06:57:12.203Z,22.40
2023-05-04T06:59:44.162Z,18.00
2023-05-04T07:02:16.400Z,19.90
2023-05-04T07:04:48.268Z,21.20
2023-05-04T07:07:20.163Z,18.20
2023-05-04T07:09:52.067Z,21.20
2023-05-04T07:12:24.041Z,21.50
2023-05-04T07:14:56.836Z,20.20
2023-05-04T07:17:29.171Z,17.20
2023-05-04T07:20:01.191Z,19.50
2023-05-04T07:22:33.085Z,24.10
2023-05-04T07:25:05.508Z,14.90
2023-05-04T07:27:37.832Z,15.50
2023-05-04T07:30:11.339Z,14.50
2023-05-04T07:35:14.679Z,15.30
2023-05-04T07:37:46.506Z,12.10
2023-05-04T07:40:18.462Z,8.90
2023-05-04T07:42:50.279Z,15.50
2023-05-04T07:45:22.140Z,14.80
2023-05-04T07:47:53.909Z,9.10
2023-05-04T07:50:25.782Z,11.80
2023-05-04T07:52:57.728Z,14.50
2023-05-04T07:55:30.758Z,15.40
2023-05-04T07:58:02.762Z,15.00
2023-05-04T08:00:34.499Z,14.80
2023-05-04T08:03:06.492Z,14.80
2023-05-04T08:05:38.944Z,22.20
2023-05-04T08:08:11.982Z,14.90
2023-05-04T08:10:43.784Z,16.30
2023-05-04T08:13:15.743Z,17.00
2023-05-04T08:15:47.598Z,14.40
2023-05-04T08:18:19.413Z,19.70
2023-05-04T08:20:51.400Z,15.80
2023-05-04T08:23:23.284Z,16.60
2023-05-04T08:25:55.086Z,16.80
2023-05-04T08:28:26.856Z,22.70
2023-05-04T08:30:58.586Z,14.20
2023-05-04T08:33:30.317Z,22.40
2023-05-04T08:36:02.172Z,11.70
2023-05-04T08:38:33.997Z,13.10
2023-05-04T08:41:07.316Z,19.30
2023-05-04T08:43:39.515Z,18.70
2023-05-04T08:46:11.904Z,17.60
2023-05-04T08:48:44.870Z,14.50
2023-05-04T08:51:16.789Z,15.00
2023-05-04T08:53:49.131Z,21.00
2023-05-04T08:56:21.279Z,18.60
2023-05-04T08:58:53.668Z,15.30
2023-05-04T09:01:26.467Z,14.10
2023-05-04T09:03:58.682Z,15.30
2023-05-04T09:06:30.745Z,15.00
2023-05-04T09:09:02.470Z,17.60
2023-05-04T09:11:35.539Z,12.20
2023-05-04T09:14:07.641Z,17.30
2023-05-04T09:16:40.004Z,12.60
2023-05-04T09:19:20.978Z,16.10
2023-05-04T09:21:54.432Z,14.40
2023-05-04T09:24:29.985Z,15.60
2023-05-04T09:27:13.542Z,15.20
2023-05-04T09:29:45.475Z,16.10
2023-05-04T09:32:17.252Z,20.20
2023-05-04T09:34:53.441Z,20.10
2023-05-04T09:37:25.530Z,18.00
2023-05-04T09:39:58.986Z,21.20
2023-05-04T09:42:30.775Z,12.10
2023-05-04T09:45:07.701Z,18.60
2023-05-04T09:47:40.698Z,17.30
2023-05-04T09:50:20.306Z,15.40
2023-05-04T09:52:53.835Z,13.30
2023-05-04T09:55:26.936Z,16.50
2023-05-04T09:57:58.803Z,22.90
2023-05-04T10:00:30.826Z,18.80
2023-05-04T10:03:06.413Z,18.10
2023-05-04T10:05:41.233Z,18.60
2023-05-04T10:08:13.493Z,18.50
2023-05-04T10:10:46.547Z,13.40
2023-05-04T10:13:18.483Z,19.20
2023-05-04T10:16:09.724Z,21.70
2023-05-04T10:18:58.511Z,14.60
2023-05-04T10:21:38.286Z,11.50
2023-05-04T10:24:32.446Z,18.20
2023-05-04T10:27:12.201Z,14.30
2023-05-04T10:29:44.874Z,23.70
2023-05-04T10:32:23.560Z,18.60
2023-05-04T10:35:07.377Z,18.30
2023-05-04T10:37:39.658Z,15.30
2023-05-04T10:40:12.632Z,15.90
2023-05-04T10:42:45.194Z,17.00
2023-05-04T10:45:18.783Z,13.60
2023-05-04T10:48:00.146Z,18.30
2023-05-04T10:50:41.926Z,17.20
2023-05-04T10:53:14.370Z,13.40
2023-05-04T10:55:47.467Z,16.60
2023-05-04T10:58:30.409Z,15.70
2023-05-04T11:01:02.405Z,15.30
2023-05-04T11:03:42.120Z,15.90
2023-05-04T11:06:23.677Z,15.80
2023-05-04T11:09:05.889Z,13.60
2023-05-04T11:11:40.531Z,11.70
2023-05-04T11:14:13.273Z,14.00
2023-05-04T11:16:45.080Z,16.60
2023-05-04T11:19:20.102Z,13.30
2023-05-04T11:21:52.700Z,20.20
2023-05-04T11:24:26.073Z,15.70
2023-05-04T11:26:58.353Z,15.10
2023-05-04T11:29:30.122Z,19.50
2023-05-04T11:32:01.958Z,15.70
2023-05-04T11:34:33.730Z,13.60
2023-05-04T11:37:06.469Z,16.60
2023-05-04T11:39:38.300Z,16.20
2023-05-04T11:42:11.085Z,17.40
2023-05-04T11:44:43.106Z,18.60
2023-05-04T11:47:16.008Z,14.70
2023-05-04T11:49:48.591Z,17.30
2023-05-04T11:52:25.885Z,14.50
2023-05-04T11:55:00.387Z,18.30
2023-05-04T11:57:32.526Z,16.60
2023-05-04T12:00:05.000Z,23.60
2023-05-04T12:02:37.205Z,15.50
2023-05-04T12:05:15.597Z,24.20
2023-05-04T12:07:47.694Z,16.30
2023-05-04T12:10:29.756Z,47.50
2023-05-04T12:13:02.004Z,15.50
2023-05-04T12:15:38.854Z,16.40
2023-05-04T12:18:21.132Z,18.00
2023-05-04T12:20:53.270Z,23.20
2023-05-04T12:23:25.139Z,13.90
2023-05-04T12:25:58.518Z,15.30
2023-05-04T12:28:31.624Z,14.60
2023-05-04T12:31:04.630Z,14.70
2023-05-04T12:33:37.137Z,14.90
2023-05-04T12:36:10.335Z,15.80
2023-05-04T12:38:42.242Z,14.90
2023-05-04T12:41:14.084Z,13.90
2023-05-04T12:43:45.896Z,16.50
2023-05-04T12:46:21.473Z,17.20
2023-05-04T12:48:53.288Z,14.50
2023-05-04T12:51:25.056Z,13.20
2023-05-04T12:53:58.288Z,17.00
2023-05-04T12:56:30.166Z,11.70
2023-05-04T12:59:01.993Z,12.60
2023-05-04T13:01:33.812Z,13.60
2023-05-04T13:04:05.614Z,17.60
2023-05-04T13:06:37.741Z,18.80
2023-05-04T13:09:10.112Z,19.40
2023-05-04T13:11:42.239Z,21.80
2023-05-04T13:14:14.549Z,16.40
2023-05-04T13:16:46.295Z,20.90
2023-05-04T13:19:18.041Z,17.10
2023-05-04T13:21:49.900Z,18.30
2023-05-04T13:24:21.698Z,16.30
2023-05-04T13:26:53.466Z,16.60
2023-05-04T13:29:25.225Z,17.00
2023-05-04T13:31:57.324Z,16.10
2023-05-04T13:34:29.033Z,21.40
2023-05-04T13:37:00.831Z,20.10
2023-05-04T13:39:40.051Z,19.80
2023-05-04T13:42:11.853Z,18.40
2023-05-04T13:44:45.325Z,17.90
2023-05-04T13:47:18.580Z,21.50
2023-05-04T13:49:50.807Z,19.80
2023-05-04T13:52:22.759Z,20.80
2023-05-04T13:54:54.943Z,17.90
2023-05-04T13:57:27.835Z,17.90
2023-05-04T14:02:42.614Z,16.90
2023-05-04T14:05:14.534Z,16.90
2023-05-04T14:07:46.223Z,15.20
2023-05-04T14:10:18.162Z,19.10
2023-05-04T14:12:49.943Z,16.90
2023-05-04T14:15:23.070Z,15.20
2023-05-04T14:17:54.928Z,13.80
2023-05-04T14:20:26.813Z,18.40
2023-05-04T14:22:58.715Z,17.90
2023-05-04T14:25:30.471Z,16.90
2023-05-04T14:28:02.227Z,12.60
2023-05-04T14:30:35.066Z,18.30
2023-05-04T14:33:06.801Z,16.80
2023-05-04T14:35:42.828Z,18.20
2023-05-04T14:38:14.736Z,16.50
2023-05-04T14:40:48.954Z,18.80
2023-05-04T14:43:21.337Z,16.10
2023-05-04T14:45:53.374Z,17.10
2023-05-04T14:48:26.417Z,16.50
2023-05-04T14:50:58.644Z,14.60
2023-05-04T14:53:34.106Z,16.50
2023-05-04T14:56:06.246Z,17.10
2023-05-04T14:58:38.005Z,18.50
2023-05-04T15:01:09.920Z,20.00
2023-05-04T15:03:42.443Z,16.90
2023-05-04T15:06:14.322Z,18.60
2023-05-04T15:08:46.216Z,20.50
2023-05-04T15:11:19.305Z,19.30
2023-05-04T15:13:51.251Z,21.40
2023-05-04T15:16:23.211Z,21.10
2023-05-04T15:18:55.046Z,21.40
2023-05-04T15:21:28.010Z,20.10
2023-05-04T15:23:59.836Z,25.80
2023-05-04T15:26:31.796Z,18.40
2023-05-04T15:29:04.024Z,22.60
2023-05-04T15:31:35.795Z,19.10
2023-05-04T15:34:07.614Z,19.00
2023-05-04T15:36:39.336Z,19.40
2023-05-04T15:39:11.546Z,18.90
2023-05-04T15:41:43.370Z,16.00
2023-05-04T15:44:15.336Z,22.20
2023-05-04T15:46:47.250Z,16.20
2023-05-04T15:49:19.303Z,20.10
2023-05-04T15:51:53.417Z,17.70
2023-05-04T15:54:25.567Z,24.60
2023-05-04T15:56:57.314Z,19.10
2023-05-04T15:59:29.027Z,14.00
2023-05-04T16:02:00.951Z,17.00
2023-05-04T16:04:33.294Z,23.90
2023-05-04T16:07:05.206Z,21.80
2023-05-04T16:09:36.963Z,21.50
2023-05-04T16:12:10.312Z,16.60
2023-05-04T16:14:42.373Z,18.80
2023-05-04T16:17:14.056Z,20.70
2023-05-04T16:19:46.018Z,22.40
2023-05-04T16:22:17.912Z,19.90
2023-05-04T16:24:49.632Z,20.00
2023-05-04T16:27:24.253Z,21.90
2023-05-04T16:29:56.463Z,19.20
2023-05-04T16:32:28.192Z,22.20
2023-05-04T16:35:00.170Z,19.80
2023-05-04T16:37:31.878Z,20.00
2023-05-04T16:40:11.627Z,18.10
2023-05-04T16:42:43.535Z,21.80
2023-05-04T16:45:15.997Z,17.90
2023-05-04T16:47:47.935Z,18.60
2023-05-04T16:50:19.750Z,27.70
2023-05-04T16:52:51.545Z,16.20
2023-05-04T16:55:26.487Z,19.60
2023-05-04T16:57:59.474Z,17.10
2023-05-04T17:00:31.570Z,17.90
2023-05-04T17:03:03.425Z,19.70
2023-05-04T17:05:35.319Z,20.10
2023-05-04T17:08:07.324Z,18.30
2023-05-04T17:10:39.117Z,19.50
2023-05-04T17:13:10.963Z,23.30
2023-05-04T17:15:42.902Z,20.90
2023-05-04T17:18:14.934Z,16.90
2023-05-04T17:20:46.716Z,22.10
2023-05-04T17:23:18.554Z,15.50
2023-05-04T17:25:50.427Z,23.70
2023-05-04T17:28:22.578Z,20.60
2023-05-04T17:30:54.456Z,21.60
2023-05-04T17:33:26.282Z,26.10
2023-05-04T17:35:58.283Z,23.40
2023-05-04T17:38:30.124Z,27.00
2023-05-04T17:41:02.169Z,23.90
2023-05-04T17:43:34.106Z,29.60
2023-05-04T17:46:06.355Z,27.30
2023-05-04T17:48:38.196Z,28.60
2023-05-04T17:51:11.778Z,28.80
2023-05-04T17:53:43.575Z,26.90
2023-05-04T17:56:16.056Z,35.70
2023-05-04T17:58:47.795Z,28.50
2023-05-04T18:01:19.724Z,42.20
2023-05-04T18:03:51.853Z,41.50
2023-05-04T18:06:23.785Z,47.50
2023-05-04T18:08:56.017Z,54.20
2023-05-04T18:11:27.742Z,43.30
2023-05-04T18:13:59.532Z,39.20
2023-05-04T18:16:33.041Z,44.10
2023-05-04T18:19:06.232Z,42.00
2023-05-04T18:21:39.175Z,43.40
2023-05-04T18:24:12.165Z,43.80
2023-05-04T18:26:44.372Z,36.10
2023-05-04T18:29:19.212Z,50.50
2023-05-04T18:31:51.785Z,71.00
2023-05-04T18:34:23.648Z,71.70
2023-05-04T18:36:55.952Z,76.00
2023-05-04T18:39:27.751Z,73.50
2023-05-04T18:42:00.256Z,73.00
2023-05-04T18:44:31.986Z,74.70
2023-05-04T18:47:04.407Z,93.90
2023-05-04T18:49:36.257Z,79.30
2023-05-04T18:52:08.198Z,83.00
2023-05-04T18:54:40.150Z,83.50
2023-05-04T18:57:14.218Z,81.80
2023-05-04T18:59:46.077Z,108.50
2023-05-04T19:02:17.852Z,92.30
2023-05-04T19:04:49.832Z,86.10
2023-05-04T19:07:21.702Z,88.80
2023-05-04T19:09:53.721Z,89.20
2023-05-04T19:12:25.458Z,83.50
2023-05-04T19:14:57.494Z,96.60
2023-05-04T19:17:29.595Z,84.90
2023-05-04T19:20:01.576Z,89.00
2023-05-04T19:22:33.887Z,94.60
2023-05-04T19:25:06.505Z,98.30
2023-05-04T19:27:38.372Z,113.20
2023-05-04T19:30:11.782Z,102.60
2023-05-04T19:32:43.765Z,102.90
2023-05-04T19:35:15.843Z,96.20
2023-05-04T19:37:47.900Z,102.60
2023-05-04T19:40:19.759Z,109.70
2023-05-04T19:42:51.711Z,98.60
2023-05-04T19:45:23.825Z,118.40
2023-05-04T19:47:55.684Z,101.30
2023-05-04T19:50:27.758Z,94.50
2023-05-04T19:53:00.533Z,102.30
2023-05-04T19:55:33.153Z,104.90
2023-05-04T19:58:04.950Z,101.60
2023-05-04T20:00:36.795Z,101.50
2023-05-04T20:03:08.992Z,106.20
2023-05-04T20:05:40.877Z,104.30
2023-05-04T20:08:12.781Z,111.30
2023-05-04T20:10:44.608Z,108.80
2023-05-04T20:13:16.602Z,105.50
2023-05-04T20:15:48.419Z,121.30
2023-05-04T20:18:20.944Z,107.90
2023-05-04T20:20:53.153Z,100.30
2023-05-04T20:23:24.981Z,108.00
2023-05-04T20:25:57.036Z,116.30
2023-05-04T20:28:28.909Z,109.10
2023-05-04T20:31:01.103Z,108.00
2023-05-04T20:33:32.903Z,110.80
2023-05-04T20:36:06.182Z,107.60
2023-05-04T20:38:38.766Z,106.50
2023-05-04T20:41:11.195Z,109.30
2023-05-04T20:43:42.914Z,114.00
2023-05-04T20:46:14.746Z,104.20
2023-05-04T20:48:46.511Z,104.80
2023-05-04T20:51:18.629Z,103.60
2023-05-04T20:53:51.011Z,102.30
2023-05-04T20:56:23.027Z,103.60
2023-05-04T20:58:54.926Z,112.10
2023-05-04T21:01:26.780Z,105.80
2023-05-04T21:03:59.090Z,98.40
2023-05-04T21:06:31.335Z,113.40
2023-05-04T21:09:04.350Z,108.90
2023-05-04T21:11:36.402Z,106.90
2023-05-04T21:14:08.676Z,113.30
2023-05-04T21:16:40.634Z,133.60
2023-05-04T21:19:12.407Z,170.50
2023-05-04T21:21:44.235Z,182.00
2023-05-04T21:24:16.276Z,200.50
2023-05-04T21:26:48.518Z,209.40
2023-05-04T21:29:20.355Z,182.30
2023-05-04T21:31:52.379Z,171.70
2023-05-04T21:34:24.938Z,201.30
2023-05-04T21:36:56.859Z,210.40
2023-05-04T21:39:28.625Z,197.40
2023-05-04T21:42:01.657Z,202.20
2023-05-04T21:44:33.452Z,214.20
2023-05-04T21:47:05.536Z,241.70
2023-05-04T21:49:37.373Z,246.40
2023-05-04T21:52:09.383Z,281.30
2023-05-04T21:54:41.273Z,278.50
2023-05-04T21:57:13.174Z,262.50
2023-05-04T21:59:45.130Z,238.80
2023-05-04T22:02:16.852Z,218.20
2023-05-04T22:04:48.846Z,232.80
2023-05-04T22:07:20.800Z,229.10
2023-05-04T22:09:52.854Z,230.00
2023-05-04T22:12:24.545Z,196.00
2023-05-04T22:14:56.337Z,170.80
2023-05-04T22:17:28.171Z,149.70
2023-05-04T22:19:59.942Z,142.50
2023-05-04T22:22:31.659Z,147.10
2023-05-04T22:25:03.614Z,137.90
2023-05-04T22:27:35.313Z,164.40
2023-05-04T22:30:09.685Z,138.30
2023-05-04T22:35:12.398Z,153.30
2023-05-04T22:37:44.213Z,164.70
2023-05-04T22:40:16.342Z,156.60
2023-05-04T22:42:48.258Z,152.80
2023-05-04T22:45:20.080Z,152.00
2023-05-04T22:47:52.333Z,160.10
2023-05-04T22:50:24.209Z,150.30
2023-05-04T22:52:55.946Z,159.30
2023-05-04T22:55:27.742Z,159.50
2023-05-04T22:57:59.651Z,164.50
2023-05-04T23:00:31.837Z,161.40
2023-05-04T23:03:03.961Z,153.10
2023-05-04T23:05:37.020Z,155.50
2023-05-04T23:08:09.854Z,165.00
2023-05-04T23:10:44.971Z,137.80
2023-05-04T23:13:16.825Z,126.80
2023-05-04T23:15:48.700Z,139.70
2023-05-04T23:18:20.567Z,138.30
2023-05-04T23:20:52.357Z,115.80
2023-05-04T23:23:24.007Z,126.30
2023-05-04T23:25:55.850Z,143.20
2023-05-04T23:28:27.541Z,121.40
2023-05-04T23:30:59.838Z,132.90
2023-05-04T23:33:31.554Z,125.40
2023-05-04T23:36:03.277Z,125.40
2023-05-04T23:38:35.179Z,109.50
2023-05-04T23:41:07.067Z,116.30
2023-05-04T23:43:38.778Z,119.30
2023-05-04T23:46:10.583Z,109.20
2023-05-04T23:48:42.505Z,124.20
2023-05-04T23:51:14.394Z,113.60
2023-05-04T23:53:46.207Z,128.50
2023-05-04T23:56:18.017Z,100.00
2023-05-04T23:58:49.950Z,129.70
